createdAt,value
2017-08-08T00:00:19.977Z,80.80
2017-08-08T00:02:47.570Z,79.80
2017-08-08T00:05:15.133Z,80.90
2017-08-08T00:07:42.697Z,81.90
2017-08-08T00:10:10.290Z,82.80
2017-08-08T00:12:37.855Z,83.40
2017-08-08T00:15:05.444Z,83.50
2017-08-08T00:17:33.001Z,83.30
2017-08-08T00:20:00.600Z,83.10
2017-08-08T00:22:28.163Z,82.90
2017-08-08T00:24:55.726Z,83.20
2017-08-08T00:27:23.319Z,83.40
2017-08-08T00:29:50.866Z,83.50
2017-08-08T00:32:19.239Z,84.20
2017-08-08T00:34:46.802Z,84.00
2017-08-08T00:37:14.365Z,84.20
2017-08-08T00:39:41.956Z,84.00
2017-08-08T00:42:09.505Z,84.20
2017-08-08T00:44:37.168Z,84.40
2017-08-08T00:47:05.966Z,84.50
2017-08-08T00:49:33.558Z,84.50
2017-08-08T00:52:01.998Z,85.10
2017-08-08T00:54:29.555Z,85.10
2017-08-08T00:56:57.117Z,85.50
2017-08-08T00:59:24.709Z,86.00
2017-08-08T01:01:52.258Z,86.50
2017-08-08T01:04:19.849Z,86.40
2017-08-08T01:06:47.399Z,85.90
2017-08-08T01:09:14.961Z,86.00
2017-08-08T01:11:42.555Z,86.00
2017-08-08T01:14:10.148Z,86.30
2017-08-08T01:16:37.710Z,86.40
2017-08-08T01:19:05.303Z,86.60
2017-08-08T01:21:32.865Z,85.80
2017-08-08T01:24:00.457Z,86.00
2017-08-08T01:26:28.021Z,87.00
2017-08-08T01:28:56.343Z,86.50
2017-08-08T01:31:23.946Z,86.50
2017-08-08T01:33:51.504Z,86.70
2017-08-08T01:36:19.068Z,87.40
2017-08-08T01:38:46.644Z,87.70
2017-08-08T01:41:14.193Z,87.90
2017-08-08T01:43:41.786Z,88.60
2017-08-08T01:46:09.347Z,87.60
2017-08-08T01:48:36.946Z,87.20
2017-08-08T01:51:04.503Z,87.60
2017-08-08T01:53:32.082Z,87.50
2017-08-08T01:55:59.673Z,87.60
2017-08-08T01:58:27.237Z,87.80
2017-08-08T02:00:54.833Z,87.70
2017-08-08T02:03:22.396Z,87.40
2017-08-08T02:05:49.999Z,87.40
2017-08-08T02:08:18.328Z,87.80
2017-08-08T02:10:45.912Z,87.80
2017-08-08T02:13:13.514Z,87.80
2017-08-08T02:15:41.081Z,88.20
2017-08-08T02:18:08.639Z,87.70
2017-08-08T02:20:36.234Z,87.70
2017-08-08T02:23:03.794Z,88.00
2017-08-08T02:25:31.403Z,88.20
2017-08-08T02:27:59.227Z,88.20
2017-08-08T02:30:26.783Z,88.80
2017-08-08T02:32:54.378Z,88.60
2017-08-08T02:35:21.946Z,88.50
2017-08-08T02:37:49.552Z,88.40
2017-08-08T02:40:17.109Z,88.80
2017-08-08T02:42:44.673Z,88.80
2017-08-08T02:45:12.265Z,88.70
2017-08-08T02:47:39.863Z,88.50
2017-08-08T02:50:08.186Z,88.20
2017-08-08T02:52:35.750Z,88.20
2017-08-08T02:55:03.340Z,87.70
2017-08-08T02:57:30.890Z,87.60
2017-08-08T02:59:58.481Z,87.60
2017-08-08T03:02:26.030Z,87.80
2017-08-08T03:04:54.387Z,88.10
2017-08-08T03:07:21.979Z,87.90
2017-08-08T03:09:49.551Z,88.20
2017-08-08T03:12:17.136Z,88.50
2017-08-08T03:14:44.699Z,88.40
2017-08-08T03:17:12.306Z,88.30
2017-08-08T03:19:40.635Z,88.80
2017-08-08T03:22:08.197Z,88.00
2017-08-08T03:24:35.794Z,88.40
2017-08-08T03:27:03.353Z,88.70
2017-08-08T03:29:30.946Z,88.50
2017-08-08T03:31:58.510Z,88.20
2017-08-08T03:34:26.048Z,88.20
2017-08-08T03:36:54.399Z,89.20
2017-08-08T03:39:21.961Z,89.10
2017-08-08T03:41:49.559Z,89.50
2017-08-08T03:44:17.116Z,89.80
2017-08-08T03:46:44.754Z,89.70
2017-08-08T03:49:12.318Z,89.70
2017-08-08T03:51:40.662Z,89.90
2017-08-08T03:54:08.253Z,89.50
2017-08-08T03:56:35.845Z,89.80
2017-08-08T03:59:03.410Z,89.40
2017-08-08T04:01:31.007Z,89.10
2017-08-08T04:03:58.593Z,89.10
2017-08-08T04:06:26.158Z,88.60
2017-08-08T04:08:54.530Z,89.40
2017-08-08T04:11:22.078Z,88.90
2017-08-08T04:13:49.644Z,89.40
2017-08-08T04:16:17.233Z,89.00
2017-08-08T04:18:45.546Z,89.30
2017-08-08T04:21:13.140Z,89.30
2017-08-08T04:23:40.702Z,89.40
2017-08-08T04:26:08.309Z,89.10
2017-08-08T04:28:35.874Z,88.90
2017-08-08T04:31:03.435Z,89.10
2017-08-08T04:33:31.028Z,89.20
2017-08-08T04:35:58.591Z,89.00
2017-08-08T04:38:26.177Z,88.50
2017-08-08T04:40:53.726Z,89.00
2017-08-08T04:43:21.317Z,88.60
2017-08-08T04:45:49.637Z,88.50
2017-08-08T04:48:17.200Z,88.50
2017-08-08T04:50:44.793Z,88.50
2017-08-08T04:53:12.356Z,88.70
2017-08-08T04:55:40.700Z,88.30
2017-08-08T04:58:08.292Z,88.30
2017-08-08T05:00:35.854Z,88.60
2017-08-08T05:03:03.461Z,89.10
2017-08-08T05:05:31.008Z,89.00
2017-08-08T05:07:58.557Z,89.10
2017-08-08T05:10:26.180Z,88.70
2017-08-08T05:12:53.743Z,89.30
2017-08-08T05:15:21.335Z,89.90
2017-08-08T05:17:48.908Z,89.50
2017-08-08T05:20:16.490Z,88.90
2017-08-08T05:22:44.039Z,88.00
2017-08-08T05:25:11.646Z,87.10
2017-08-08T05:27:39.209Z,87.00
2017-08-08T05:30:06.775Z,86.40
2017-08-08T05:32:35.132Z,84.60
2017-08-08T05:35:02.695Z,84.60
2017-08-08T05:37:30.286Z,83.40
2017-08-08T05:39:58.615Z,85.40
2017-08-08T05:42:26.207Z,85.30
2017-08-08T05:44:54.534Z,90.00
2017-08-08T05:47:22.098Z,89.20
2017-08-08T05:49:49.690Z,89.10
2017-08-08T05:52:17.243Z,85.40
2017-08-08T05:54:44.847Z,80.70
2017-08-08T05:57:12.411Z,79.20
2017-08-08T05:59:39.972Z,78.30
2017-08-08T06:02:07.579Z,78.10
2017-08-08T06:04:35.143Z,78.00
2017-08-08T06:07:02.710Z,81.60
2017-08-08T06:09:30.298Z,83.80
2017-08-08T06:11:58.627Z,87.30
2017-08-08T06:14:26.189Z,87.30
2017-08-08T06:16:53.781Z,89.10
2017-08-08T06:19:21.391Z,88.00
2017-08-08T06:21:48.945Z,86.10
2017-08-08T06:24:16.501Z,85.80
2017-08-08T06:26:44.107Z,83.10
2017-08-08T06:29:11.657Z,87.30
2017-08-08T06:31:39.250Z,90.60
2017-08-08T06:34:06.811Z,90.30
2017-08-08T06:36:35.184Z,80.50
2017-08-08T06:39:02.747Z,80.50
2017-08-08T06:41:31.074Z,78.80
2017-08-08T06:43:58.652Z,78.50
2017-08-08T06:46:26.228Z,83.20
2017-08-08T06:48:53.824Z,84.30
2017-08-08T06:51:21.416Z,84.80
2017-08-08T06:53:48.977Z,84.50
2017-08-08T06:56:16.562Z,83.20
2017-08-08T06:58:44.119Z,82.20
2017-08-08T07:01:11.713Z,82.50
2017-08-08T07:03:40.039Z,83.90
2017-08-08T07:06:07.628Z,83.80
2017-08-08T07:08:36.125Z,86.30
2017-08-08T07:11:04.455Z,86.10
2017-08-08T07:13:32.046Z,85.70
2017-08-08T07:15:59.639Z,79.20
2017-08-08T07:18:28.807Z,83.70
2017-08-08T07:20:56.835Z,83.70
2017-08-08T07:23:24.398Z,78.40
2017-08-08T07:25:51.991Z,77.70
2017-08-08T07:28:24.549Z,78.00
2017-08-08T07:30:56.492Z,76.40
2017-08-08T07:33:24.055Z,74.70
2017-08-08T07:35:52.248Z,83.70
2017-08-08T07:38:19.841Z,74.60
2017-08-08T07:40:48.152Z,73.20
2017-08-08T07:43:15.746Z,75.10
2017-08-08T07:45:44.089Z,83.50
2017-08-08T07:48:12.568Z,84.50
2017-08-08T07:50:40.130Z,80.20
2017-08-08T07:53:07.722Z,83.60
2017-08-08T07:55:35.271Z,84.10
2017-08-08T07:58:02.878Z,80.20
2017-08-08T08:00:30.441Z,74.50
2017-08-08T08:02:58.003Z,74.00
2017-08-08T08:05:25.590Z,73.50
2017-08-08T08:07:53.145Z,73.50
2017-08-08T08:10:20.736Z,72.90
2017-08-08T08:12:48.329Z,72.10
2017-08-08T08:15:15.891Z,71.00
2017-08-08T08:17:43.484Z,71.00
2017-08-08T08:20:11.039Z,72.10
2017-08-08T08:22:38.626Z,76.00
2017-08-08T08:25:06.190Z,75.80
2017-08-08T08:27:33.781Z,73.20
2017-08-08T08:30:01.343Z,73.10
2017-08-08T08:32:28.940Z,73.90
2017-08-08T08:34:56.529Z,74.80
2017-08-08T08:37:24.092Z,72.60
2017-08-08T08:39:51.700Z,77.30
2017-08-08T08:42:19.263Z,76.90
2017-08-08T08:44:46.827Z,74.80
2017-08-08T08:47:14.423Z,74.90
2017-08-08T08:49:41.981Z,73.60
2017-08-08T08:52:09.574Z,72.20
2017-08-08T08:54:37.137Z,69.80
2017-08-08T08:57:04.729Z,68.40
2017-08-08T08:59:32.322Z,67.90
2017-08-08T09:02:00.252Z,68.10
2017-08-08T09:04:27.821Z,67.80
2017-08-08T09:06:56.809Z,65.50
2017-08-08T09:09:25.835Z,66.20
2017-08-08T09:11:53.444Z,65.70
2017-08-08T09:14:21.029Z,65.40
2017-08-08T09:16:49.372Z,64.30
2017-08-08T09:19:16.964Z,64.20
2017-08-08T09:21:44.528Z,62.60
2017-08-08T09:24:12.105Z,62.80
2017-08-08T09:26:39.699Z,63.20
2017-08-08T09:29:07.263Z,64.00
2017-08-08T09:31:34.859Z,63.90
2017-08-08T09:34:02.411Z,63.90
2017-08-08T09:36:29.993Z,63.90
2017-08-08T09:38:57.602Z,63.70
2017-08-08T09:41:25.165Z,64.50
2017-08-08T09:43:52.728Z,64.40
2017-08-08T09:46:20.335Z,66.00
2017-08-08T09:48:47.972Z,69.10
2017-08-08T09:51:15.536Z,68.90
2017-08-08T09:53:43.098Z,70.10
2017-08-08T09:56:11.012Z,70.50
2017-08-08T09:58:45.170Z,72.90
2017-08-08T10:01:12.762Z,72.70
2017-08-08T10:03:40.350Z,74.20
2017-08-08T10:06:07.903Z,76.10
2017-08-08T10:08:37.565Z,74.30
2017-08-08T10:11:05.174Z,77.40
2017-08-08T10:13:32.753Z,76.20
2017-08-08T10:16:00.319Z,75.00
2017-08-08T10:18:27.908Z,74.90
2017-08-08T10:20:55.471Z,76.40
2017-08-08T10:23:23.077Z,76.20
2017-08-08T10:25:50.641Z,76.70
2017-08-08T10:28:19.118Z,77.30
2017-08-08T10:30:46.712Z,80.20
2017-08-08T10:33:14.321Z,81.70
2017-08-08T10:35:42.646Z,79.20
2017-08-08T10:38:10.209Z,79.20
2017-08-08T10:40:37.802Z,82.10
2017-08-08T10:43:06.129Z,82.90
2017-08-08T10:45:33.753Z,82.90
2017-08-08T10:48:01.317Z,83.00
2017-08-08T10:50:29.644Z,84.20
2017-08-08T10:52:57.237Z,84.10
2017-08-08T10:55:25.576Z,85.90
2017-08-08T10:57:53.127Z,86.10
2017-08-08T11:00:20.734Z,87.00
2017-08-08T11:02:48.296Z,85.90
2017-08-08T11:05:15.875Z,88.30
2017-08-08T11:07:43.444Z,86.60
2017-08-08T11:10:11.031Z,89.30
2017-08-08T11:12:38.638Z,88.20
2017-08-08T11:15:06.966Z,86.30
2017-08-08T11:17:34.529Z,86.30
2017-08-08T11:20:02.131Z,85.00
2017-08-08T11:22:29.684Z,85.00
2017-08-08T11:24:57.277Z,85.90
2017-08-08T11:27:24.842Z,85.70
2017-08-08T11:29:52.427Z,86.70
2017-08-08T11:32:20.010Z,88.30
2017-08-08T11:34:47.572Z,88.80
2017-08-08T11:37:15.167Z,89.50
2017-08-08T11:39:42.729Z,90.30
2017-08-08T11:42:11.056Z,90.00
2017-08-08T11:44:38.649Z,90.00
2017-08-08T11:47:06.212Z,88.90
2017-08-08T11:49:34.571Z,88.10
2017-08-08T11:52:02.139Z,88.10
2017-08-08T11:54:29.695Z,88.30
2017-08-08T11:56:57.289Z,88.30
2017-08-08T11:59:25.616Z,86.80
2017-08-08T12:01:53.211Z,86.70
2017-08-08T12:04:21.537Z,89.30
2017-08-08T12:06:49.086Z,89.30
2017-08-08T12:09:16.677Z,88.80
2017-08-08T12:11:44.275Z,90.10
2017-08-08T12:14:11.834Z,89.70
2017-08-08T12:16:39.425Z,89.60
2017-08-08T12:19:07.019Z,89.00
2017-08-08T12:21:34.611Z,88.50
2017-08-08T12:24:02.186Z,89.70
2017-08-08T12:26:29.751Z,88.40
2017-08-08T12:28:57.358Z,88.40
2017-08-08T12:31:24.921Z,89.40
2017-08-08T12:33:52.515Z,89.30
2017-08-08T12:36:20.844Z,88.80
2017-08-08T12:38:48.436Z,88.80
2017-08-08T12:41:15.998Z,90.40
2017-08-08T12:43:43.590Z,89.30
2017-08-08T12:46:11.154Z,89.40
2017-08-08T12:48:39.707Z,88.90
2017-08-08T12:51:07.275Z,89.70
2017-08-08T12:53:34.893Z,88.10
2017-08-08T12:56:02.455Z,88.80
2017-08-08T12:58:30.948Z,88.50
2017-08-08T13:00:58.555Z,87.00
2017-08-08T13:03:26.147Z,86.80
2017-08-08T13:05:53.712Z,86.40
2017-08-08T13:08:21.335Z,87.00
2017-08-08T13:10:48.897Z,86.10
2017-08-08T13:13:16.459Z,85.40
2017-08-08T13:15:44.056Z,85.00
2017-08-08T13:18:11.615Z,84.20
2017-08-08T13:20:39.207Z,83.40
2017-08-08T13:23:06.771Z,82.50
2017-08-08T13:25:34.363Z,82.40
2017-08-08T13:28:02.551Z,81.60
2017-08-08T13:30:30.133Z,81.20
2017-08-08T13:32:57.727Z,81.60
2017-08-08T13:35:25.293Z,81.70
2017-08-08T13:37:52.881Z,82.60
2017-08-08T13:40:21.697Z,81.00
2017-08-08T13:42:49.269Z,81.20
2017-08-08T13:45:16.861Z,81.80
2017-08-08T13:47:45.189Z,84.00
2017-08-08T13:50:12.780Z,84.20
2017-08-08T13:52:41.064Z,83.40
2017-08-08T13:55:08.658Z,82.90
2017-08-08T13:57:36.224Z,82.80
2017-08-08T14:02:58.043Z,80.70
2017-08-08T14:05:25.629Z,79.10
2017-08-08T14:07:55.331Z,78.20
2017-08-08T14:10:22.866Z,77.30
2017-08-08T14:12:51.994Z,77.10
2017-08-08T14:15:19.793Z,77.10
2017-08-08T14:17:47.659Z,76.30
2017-08-08T14:20:15.963Z,77.30
2017-08-08T14:22:44.609Z,76.90
2017-08-08T14:25:13.843Z,76.60
2017-08-08T14:27:42.162Z,77.10
2017-08-08T14:30:10.635Z,78.90
2017-08-08T14:32:39.157Z,81.10
2017-08-08T14:35:07.573Z,83.90
2017-08-08T14:37:35.214Z,85.50
2017-08-08T14:40:04.578Z,86.90
2017-08-08T14:42:32.123Z,89.20
2017-08-08T14:44:59.689Z,89.50
2017-08-08T14:47:28.021Z,90.40
2017-08-08T14:49:55.625Z,90.70
2017-08-08T14:52:26.494Z,90.50
2017-08-08T14:54:55.006Z,90.60
2017-08-08T14:57:23.339Z,91.40
2017-08-08T14:59:50.870Z,91.40
2017-08-08T15:02:18.456Z,91.80
2017-08-08T15:04:49.282Z,90.90
2017-08-08T15:07:17.664Z,89.50
2017-08-08T15:09:45.228Z,88.60
2017-08-08T15:12:12.873Z,89.40
2017-08-08T15:14:41.328Z,90.10
2017-08-08T15:17:08.863Z,88.90
2017-08-08T15:19:37.997Z,89.80
2017-08-08T15:22:10.404Z,89.40
2017-08-08T15:24:39.078Z,89.40
2017-08-08T15:27:07.937Z,89.40
2017-08-08T15:29:37.021Z,87.00
2017-08-08T15:32:04.550Z,86.20
2017-08-08T15:34:32.317Z,85.50
2017-08-08T15:37:01.955Z,86.60
2017-08-08T15:39:30.437Z,87.60
2017-08-08T15:41:57.969Z,87.80
2017-08-08T15:44:25.541Z,87.30
2017-08-08T15:46:55.141Z,85.00
2017-08-08T15:49:23.452Z,86.70
2017-08-08T15:51:51.048Z,85.90
2017-08-08T15:54:18.584Z,87.10
2017-08-08T15:56:46.162Z,86.80
2017-08-08T15:59:14.241Z,86.80
2017-08-08T16:01:47.447Z,84.30
2017-08-08T16:04:22.722Z,85.00
2017-08-08T16:09:30.635Z,85.40
2017-08-08T16:12:06.447Z,84.80
2017-08-08T16:14:49.363Z,84.80
2017-08-08T16:17:32.565Z,84.70
2017-08-08T16:22:55.858Z,84.60
2017-08-08T16:25:53.718Z,83.80
2017-08-08T16:31:30.837Z,84.40
2017-08-08T16:36:46.863Z,84.30
2017-08-08T16:39:21.578Z,84.70
2017-08-08T16:42:03.999Z,84.20
2017-08-08T16:44:39.655Z,84.40
2017-08-08T16:47:11.143Z,84.00
2017-08-08T16:52:33.253Z,84.80
2017-08-08T16:55:01.987Z,83.90
2017-08-08T16:57:33.142Z,83.80
2017-08-08T17:00:01.055Z,84.40
2017-08-08T17:02:35.963Z,83.40
2017-08-08T17:05:09.246Z,83.30
2017-08-08T17:07:41.131Z,83.60
2017-08-08T17:10:24.805Z,83.30
2017-08-08T17:13:12.969Z,83.20
2017-08-08T17:15:46.449Z,83.40
2017-08-08T17:18:14.177Z,83.30
2017-08-08T17:20:44.102Z,83.20
2017-08-08T17:23:12.965Z,83.30
2017-08-08T17:25:40.522Z,83.30
2017-08-08T17:28:10.305Z,84.00
2017-08-08T17:30:37.893Z,84.10
2017-08-08T17:33:06.947Z,83.10
2017-08-08T17:35:35.315Z,83.20
2017-08-08T17:38:03.271Z,82.80
2017-08-08T17:40:32.301Z,83.10
2017-08-08T17:43:01.618Z,82.30
2017-08-08T17:45:30.959Z,82.30
2017-08-08T17:47:59.366Z,83.30
2017-08-08T17:50:29.594Z,84.00
2017-08-08T17:53:02.646Z,84.40
2017-08-08T17:55:30.961Z,84.60
2017-08-08T17:57:58.519Z,84.60
2017-08-08T18:00:26.110Z,84.70
2017-08-08T18:02:57.722Z,85.10
2017-08-08T18:05:25.509Z,85.20
2017-08-08T18:08:03.926Z,85.20
2017-08-08T18:10:31.565Z,84.70
2017-08-08T18:13:03.115Z,84.70
2017-08-08T18:18:14.855Z,84.30
2017-08-08T18:20:47.053Z,84.30
2017-08-08T18:23:24.666Z,84.10
2017-08-08T18:25:54.111Z,84.20
2017-08-08T18:28:21.686Z,84.40
2017-08-08T18:30:56.181Z,85.30
2017-08-08T18:33:28.478Z,85.50
2017-08-08T18:35:56.090Z,85.30
2017-08-08T18:38:26.236Z,85.10
2017-08-08T18:40:57.497Z,86.40
2017-08-08T18:43:25.048Z,85.70
2017-08-08T18:45:52.665Z,85.50
2017-08-08T18:48:20.668Z,86.20
2017-08-08T18:50:48.214Z,85.50
2017-08-08T18:53:18.671Z,86.20
2017-08-08T18:55:46.231Z,86.60
2017-08-08T18:58:14.746Z,86.50
2017-08-08T19:00:42.291Z,86.50
2017-08-08T19:03:15.308Z,87.20
2017-08-08T19:05:42.878Z,87.10
2017-08-08T19:08:10.486Z,87.40
2017-08-08T19:10:38.071Z,87.80
2017-08-08T19:13:05.643Z,88.60
2017-08-08T19:15:33.293Z,89.50
2017-08-08T19:18:02.046Z,90.30
2017-08-08T19:20:33.411Z,91.10
2017-08-08T19:23:01.042Z,91.00
2017-08-08T19:25:29.946Z,91.20
2017-08-08T19:27:58.502Z,91.40
2017-08-08T19:30:26.076Z,91.40
2017-08-08T19:32:54.675Z,91.20
2017-08-08T19:35:22.225Z,91.30
2017-08-08T19:37:50.638Z,91.20
2017-08-08T19:40:27.906Z,90.20
2017-08-08T19:42:56.482Z,90.20
2017-08-08T19:45:37.538Z,90.20
2017-08-08T19:48:08.887Z,90.80
2017-08-08T19:50:37.734Z,91.10
2017-08-08T19:53:05.369Z,91.30
2017-08-08T19:55:33.259Z,91.00
2017-08-08T19:58:03.146Z,91.30
2017-08-08T20:00:36.547Z,91.30
2017-08-08T20:03:06.115Z,91.90
2017-08-08T20:05:40.973Z,91.80
2017-08-08T20:08:08.871Z,91.60
2017-08-08T20:10:40.994Z,92.00
2017-08-08T20:13:08.816Z,91.90
2017-08-08T20:15:39.962Z,91.70
2017-08-08T20:18:08.180Z,91.80
2017-08-08T20:20:36.491Z,91.80
2017-08-08T20:23:04.918Z,91.80
2017-08-08T20:28:33.010Z,91.60
2017-08-08T20:31:01.784Z,91.50
2017-08-08T20:33:30.172Z,91.30
2017-08-08T20:38:33.289Z,91.30
2017-08-08T20:41:02.074Z,91.50
2017-08-08T20:43:30.455Z,90.90
2017-08-08T20:45:58.088Z,90.50
2017-08-08T20:48:26.605Z,90.50
2017-08-08T20:50:54.190Z,91.00
2017-08-08T20:53:22.597Z,91.50
2017-08-08T20:55:51.033Z,91.50
2017-08-08T20:58:19.555Z,91.70
2017-08-08T21:00:49.455Z,91.30
2017-08-08T21:03:19.534Z,91.30
2017-08-08T21:05:50.293Z,91.10
2017-08-08T21:08:20.680Z,90.90
2017-08-08T21:10:48.371Z,91.00
2017-08-08T21:16:13.420Z,91.50
2017-08-08T21:18:40.968Z,91.80
2017-08-08T21:21:09.469Z,92.00
2017-08-08T21:23:38.766Z,92.00
2017-08-08T21:26:07.420Z,92.00
2017-08-08T21:28:38.159Z,92.30
2017-08-08T21:31:07.271Z,92.30
2017-08-08T21:33:39.722Z,92.40
2017-08-08T21:36:14.354Z,91.90
2017-08-08T21:41:17.209Z,91.70
2017-08-08T21:43:46.382Z,92.10
2017-08-08T21:46:14.642Z,91.80
2017-08-08T21:48:45.073Z,91.10
2017-08-08T21:51:13.359Z,91.00
2017-08-08T21:56:16.872Z,91.20
2017-08-08T21:58:45.774Z,90.90
2017-08-08T22:01:15.068Z,90.70
2017-08-08T22:03:49.870Z,90.20
2017-08-08T22:06:21.246Z,90.20
2017-08-08T22:08:57.792Z,90.60
2017-08-08T22:11:28.442Z,90.20
2017-08-08T22:14:00.602Z,90.30
2017-08-08T22:19:10.011Z,89.70
2017-08-08T22:21:45.104Z,88.30
2017-08-08T22:26:52.289Z,87.70
2017-08-08T22:29:38.990Z,87.30
2017-08-08T22:32:11.328Z,87.40
2017-08-08T22:34:41.993Z,87.50
2017-08-08T22:37:09.693Z,87.70
2017-08-08T22:39:42.426Z,87.30
2017-08-08T22:45:04.661Z,86.40
2017-08-08T22:50:17.122Z,87.00
2017-08-08T22:55:51.409Z,86.30
2017-08-08T23:01:09.225Z,86.40
2017-08-08T23:03:36.810Z,85.90
2017-08-08T23:06:04.394Z,86.10
2017-08-08T23:08:34.510Z,85.00
2017-08-08T23:11:03.260Z,85.00
2017-08-08T23:13:30.927Z,84.10
2017-08-08T23:16:00.661Z,84.00
2017-08-08T23:18:28.803Z,84.40
2017-08-08T23:20:57.265Z,84.40
2017-08-08T23:23:25.127Z,84.70
2017-08-08T23:25:52.778Z,84.20
2017-08-08T23:28:21.784Z,85.00
2017-08-08T23:30:50.099Z,84.90
2017-08-08T23:33:17.669Z,84.60
2017-08-08T23:35:45.199Z,84.70
2017-08-08T23:38:12.731Z,85.00
2017-08-08T23:40:40.310Z,85.30
2017-08-08T23:43:07.845Z,86.10
2017-08-08T23:45:35.877Z,85.30
2017-08-08T23:48:03.614Z,85.60
2017-08-08T23:50:34.102Z,85.90
2017-08-08T23:53:03.977Z,86.60
2017-08-08T23:55:31.505Z,86.40
2017-08-08T23:58:00.369Z,86.80
